Time;durP1;ratioP1;P1;durP2;ratioP2;P2;SDS_P1;SDS_P2;PMS_P1;PMS_P2;Temp;Humidity;BMP_temperature;BMP_pressure;BME280_temperature;BME280_humidity;BME280_pressure;Samples;Min_cycle;Max_cycle;Signal;HPM_P1;HPM_P2
2023/04/14 00:02:10;;;;;;;5.63;3.13;;;6.30;99.90;;;;;;5093186;28;20294;-56
2023/04/14 00:04:36;;;;;;;4.43;3.23;;;6.20;99.90;;;;;;5093091;28;20204;-55
2023/04/14 00:07:05;;;;;;;4.13;3.13;;;6.20;99.90;;;;;;5092687;28;20261;-57
2023/04/14 00:09:32;;;;;;;4.00;2.80;;;6.10;99.90;;;;;;5092771;28;20660;-55
2023/04/14 00:11:58;;;;;;;3.90;3.03;;;6.20;99.90;;;;;;5093064;28;20257;-56
2023/04/14 00:14:25;;;;;;;3.90;3.37;;;6.10;99.90;;;;;;5093132;28;20215;-58
2023/04/14 00:16:52;;;;;;;5.60;3.50;;;6.10;99.90;;;;;;5092498;28;20694;-55
2023/04/14 00:19:19;;;;;;;4.10;3.13;;;6.10;99.90;;;;;;5092477;28;20224;-55
2023/04/14 00:21:45;;;;;;;4.10;2.90;;;6.10;99.90;;;;;;5092357;28;20208;-57
2023/04/14 00:24:14;;;;;;;6.57;3.20;;;6.20;99.90;;;;;;5092234;28;20208;-56
2023/04/14 00:26:40;;;;;;;3.97;3.10;;;6.20;99.90;;;;;;5092432;28;20220;-56
2023/04/14 00:29:07;;;;;;;4.63;2.53;;;6.20;99.90;;;;;;5092446;28;20212;-57
2023/04/14 00:31:34;;;;;;;5.03;3.47;;;6.30;99.90;;;;;;5092185;28;20212;-56
2023/04/14 00:34:01;;;;;;;3.80;2.83;;;6.20;99.90;;;;;;5092525;28;20236;-55
2023/04/14 00:36:27;;;;;;;6.07;3.13;;;6.10;99.90;;;;;;5092737;28;20215;-56
2023/04/14 00:38:54;;;;;;;3.83;3.23;;;6.10;99.90;;;;;;5093121;28;20310;-58
2023/04/14 00:41:23;;;;;;;4.10;2.90;;;6.20;99.90;;;;;;5093236;28;20240;-57
2023/04/14 00:43:53;;;;;;;4.10;3.17;;;6.20;99.90;;;;;;5093417;28;20483;-59
2023/04/14 00:46:20;;;;;;;4.33;3.00;;;6.30;99.90;;;;;;5095681;28;20208;-56
2023/04/14 00:48:47;;;;;;;3.53;3.10;;;6.30;99.90;;;;;;5097015;28;20204;-57
2023/04/14 00:51:14;;;;;;;3.73;2.80;;;6.40;99.90;;;;;;5096847;28;20703;-57
2023/04/14 00:53:40;;;;;;;4.23;2.87;;;6.50;99.90;;;;;;5096761;28;20204;-58
2023/04/14 00:56:08;;;;;;;3.83;2.70;;;6.60;99.90;;;;;;5097019;28;20691;-56
2023/04/14 00:58:36;;;;;;;4.33;3.00;;;6.60;99.90;;;;;;5096621;28;20232;-59
2023/04/14 01:01:03;;;;;;;3.07;2.77;;;6.60;99.90;;;;;;5096533;28;20309;-58
2023/04/14 01:03:30;;;;;;;5.17;2.97;;;6.70;99.90;;;;;;5096563;28;20206;-57
2023/04/14 01:05:56;;;;;;;4.50;3.00;;;6.70;99.90;;;;;;5096000;28;20201;-59
2023/04/14 01:08:24;;;;;;;3.83;2.77;;;6.70;99.90;;;;;;5096698;28;20630;-57
2023/04/14 01:11:02;;;;;;;2.60;2.37;;;6.70;99.90;;;;;;5096331;28;20719;-59
2023/04/14 01:13:35;;;;;;;3.47;2.80;;;6.70;99.90;;;;;;5096681;28;20204;-59
2023/04/14 01:16:14;;;;;;;3.27;2.70;;;6.70;99.90;;;;;;5096063;28;20686;-57
2023/04/14 01:18:51;;;;;;;4.93;2.83;;;6.70;99.90;;;;;;5097222;28;20216;-58
2023/04/14 01:21:22;;;;;;;3.20;2.53;;;6.60;99.90;;;;;;5097025;28;20228;-56
2023/04/14 01:24:05;;;;;;;3.83;2.60;;;6.70;99.90;;;;;;5096739;28;20208;-58
2023/04/14 01:26:33;;;;;;;3.57;2.50;;;6.80;99.90;;;;;;5096176;28;20579;-57
2023/04/14 01:29:24;;;;;;;4.30;2.87;;;7.00;99.90;;;;;;5096480;28;20257;-57
2023/04/14 01:31:59;;;;;;;3.43;2.40;;;7.10;99.90;;;;;;5098016;28;20240;-59
2023/04/14 01:34:34;;;;;;;2.30;2.03;;;7.20;99.90;;;;;;5098244;28;20295;-59
2023/04/14 01:37:06;;;;;;;5.00;2.20;;;7.40;99.90;;;;;;5097847;28;20625;-59
2023/04/14 01:39:37;;;;;;;4.80;1.70;;;7.40;99.90;;;;;;5097936;28;20228;-59
2023/04/14 01:42:06;;;;;;;3.67;2.50;;;7.30;99.90;;;;;;5097756;28;20209;-59
2023/04/14 01:44:34;;;;;;;4.10;2.50;;;7.30;99.90;;;;;;5097235;28;20201;-59
2023/04/14 01:47:05;;;;;;;2.80;2.50;;;7.30;99.90;;;;;;5096966;28;20211;-59
2023/04/14 01:49:35;;;;;;;3.87;2.43;;;7.30;99.90;;;;;;5096967;28;20232;-59
2023/04/14 01:52:04;;;;;;;3.17;2.60;;;7.40;99.90;;;;;;5097849;28;20691;-58
2023/04/14 01:54:33;;;;;;;4.53;2.70;;;7.50;99.90;;;;;;5097531;28;20215;-59
2023/04/14 01:57:02;;;;;;;3.23;2.47;;;7.50;99.90;;;;;;5096157;28;20204;-59
2023/04/14 01:59:32;;;;;;;4.17;2.30;;;7.50;99.90;;;;;;5096691;28;20228;-59
2023/04/14 02:02:01;;;;;;;5.20;2.53;;;7.50;99.90;;;;;;5097854;28;20204;-59
2023/04/14 02:04:30;;;;;;;4.00;2.60;;;7.40;99.90;;;;;;5097691;28;20204;-60
2023/04/14 02:06:59;;;;;;;3.10;2.50;;;7.40;99.90;;;;;;5097387;28;20230;-59
2023/04/14 02:09:27;;;;;;;3.37;2.60;;;7.40;99.90;;;;;;5098305;28;20295;-59
2023/04/14 02:11:55;;;;;;;2.70;2.27;;;7.30;99.90;;;;;;5097556;28;20212;-59
2023/04/14 02:14:23;;;;;;;3.63;2.50;;;7.30;99.90;;;;;;5097462;28;20697;-59
2023/04/14 02:16:52;;;;;;;3.37;2.40;;;7.20;99.90;;;;;;5097137;28;20607;-59
2023/04/14 02:19:21;;;;;;;3.73;2.40;;;7.10;99.90;;;;;;5096964;28;20224;-59
2023/04/14 02:21:52;;;;;;;4.80;2.70;;;7.00;99.90;;;;;;5097384;28;20204;-59
2023/04/14 02:24:19;;;;;;;5.70;2.50;;;7.00;99.90;;;;;;5096872;28;20223;-59
2023/04/14 02:26:54;;;;;;;3.33;2.70;;;6.90;99.90;;;;;;5096480;28;20244;-59
2023/04/14 02:29:23;;;;;;;4.63;2.70;;;6.80;99.90;;;;;;5095856;28;20580;-59
2023/04/14 02:31:54;;;;;;;4.33;2.40;;;6.70;99.90;;;;;;5096458;28;20299;-59
2023/04/14 02:34:27;;;;;;;5.47;2.60;;;6.60;99.90;;;;;;5096339;28;20691;-59
2023/04/14 02:36:57;;;;;;;2.93;2.50;;;6.60;99.90;;;;;;5096196;28;20204;-59
2023/04/14 02:39:30;;;;;;;3.73;2.60;;;6.50;99.90;;;;;;5095893;28;20228;-59
2023/04/14 02:42:00;;;;;;;3.77;2.57;;;6.50;99.90;;;;;;5096356;28;20215;-60
2023/04/14 02:44:31;;;;;;;2.73;2.47;;;6.50;99.90;;;;;;5096428;28;20233;-60
2023/04/14 02:47:02;;;;;;;3.47;2.63;;;6.50;99.90;;;;;;5096034;28;20215;-60
2023/04/14 02:49:30;;;;;;;5.93;2.70;;;6.50;99.90;;;;;;5096167;28;20322;-58
2023/04/14 02:52:00;;;;;;;4.40;2.50;;;6.50;99.90;;;;;;5096459;28;20674;-59
2023/04/14 02:54:28;;;;;;;5.47;2.77;;;6.50;99.90;;;;;;5096087;28;20299;-60
2023/04/14 02:56:56;;;;;;;6.30;2.93;;;6.60;99.90;;;;;;5095795;28;20211;-59
2023/04/14 02:59:23;;;;;;;5.87;3.20;;;6.50;99.90;;;;;;5095343;28;20686;-60
2023/04/14 03:01:51;;;;;;;3.93;3.00;;;6.60;99.90;;;;;;5095503;28;20269;-60
2023/04/14 03:04:18;;;;;;;3.67;3.13;;;6.70;99.90;;;;;;5095351;28;20214;-60
2023/04/14 03:06:45;;;;;;;5.40;3.03;;;6.70;99.90;;;;;;5095431;28;20207;-59
2023/04/14 03:09:14;;;;;;;3.70;2.80;;;6.70;99.90;;;;;;5094673;28;20207;-60
2023/04/14 03:11:42;;;;;;;3.13;2.60;;;6.80;99.90;;;;;;5095438;28;20235;-60
2023/04/14 03:14:10;;;;;;;3.43;2.73;;;6.80;99.90;;;;;;5095120;28;20201;-60
2023/04/14 03:16:38;;;;;;;3.83;2.50;;;6.80;99.90;;;;;;5094574;28;20581;-60
2023/04/14 03:19:06;;;;;;;3.63;3.27;;;6.80;99.90;;;;;;5095570;28;20278;-60
2023/04/14 03:21:35;;;;;;;3.50;2.70;;;6.80;99.90;;;;;;5095014;28;20204;-59
2023/04/14 03:24:03;;;;;;;3.50;2.60;;;6.70;99.90;;;;;;5095082;28;20211;-58
2023/04/14 03:26:33;;;;;;;3.20;2.73;;;6.70;99.90;;;;;;5094340;28;20208;-59
2023/04/14 03:29:02;;;;;;;4.23;2.93;;;6.60;99.90;;;;;;5094627;28;20200;-59
2023/04/14 03:31:32;;;;;;;3.83;2.80;;;6.40;99.90;;;;;;5094029;28;20269;-60
2023/04/14 03:34:04;;;;;;;3.53;2.73;;;6.30;99.90;;;;;;5094102;28;20205;-60
2023/04/14 03:36:32;;;;;;;4.33;2.87;;;6.20;99.90;;;;;;5094098;28;20214;-59
2023/04/14 03:39:04;;;;;;;3.73;3.30;;;6.10;99.90;;;;;;5094015;28;20714;-59
2023/04/14 03:41:36;;;;;;;4.83;3.60;;;6.00;99.90;;;;;;5094319;28;20224;-58
2023/04/14 03:44:05;;;;;;;4.97;3.50;;;6.00;99.90;;;;;;5094316;28;20210;-60
2023/04/14 03:46:32;;;;;;;5.30;3.67;;;5.90;99.90;;;;;;5093996;28;20243;-60
2023/04/14 03:49:00;;;;;;;6.63;4.03;;;5.90;99.90;;;;;;5094649;28;20212;-59
2023/04/14 03:51:29;;;;;;;6.50;4.30;;;5.80;99.90;;;;;;5094054;28;20224;-60
2023/04/14 03:53:59;;;;;;;6.30;4.60;;;5.80;99.90;;;;;;5093877;28;20614;-60
2023/04/14 03:56:27;;;;;;;6.30;4.57;;;5.80;99.90;;;;;;5094220;28;20206;-59
2023/04/14 03:58:56;;;;;;;6.43;4.83;;;5.70;99.90;;;;;;5094301;28;20208;-59
2023/04/14 04:01:25;;;;;;;4.73;4.20;;;5.60;99.90;;;;;;5094401;28;20239;-58
2023/04/14 04:03:53;;;;;;;6.83;4.67;;;5.60;99.90;;;;;;5094816;28;20204;-59
2023/04/14 04:06:20;;;;;;;6.90;3.80;;;5.60;99.90;;;;;;5094714;28;20239;-59
2023/04/14 04:08:49;;;;;;;5.07;3.83;;;5.50;99.90;;;;;;5094385;28;20235;-58
2023/04/14 04:11:19;;;;;;;6.07;3.67;;;5.50;99.90;;;;;;5094869;28;20224;-58
2023/04/14 04:13:48;;;;;;;6.20;3.97;;;5.50;99.90;;;;;;5094742;28;20208;-59
2023/04/14 04:16:17;;;;;;;13.53;9.10;;;5.50;99.90;;;;;;5094618;28;20208;-59
2023/04/14 04:18:45;;;;;;;5.80;5.20;;;5.40;99.90;;;;;;5094721;28;20208;-59
2023/04/14 04:21:16;;;;;;;8.43;5.70;;;5.40;99.90;;;;;;5097843;28;20239;-59
2023/04/14 04:23:47;;;;;;;5.47;4.20;;;5.40;99.90;;;;;;5100170;28;20204;-59
2023/04/14 04:26:14;;;;;;;6.13;4.40;;;5.40;99.90;;;;;;5100229;28;20212;-58
2023/04/14 04:28:41;;;;;;;5.40;4.17;;;5.40;99.90;;;;;;5099928;28;20686;-59
2023/04/14 04:31:10;;;;;;;4.23;3.60;;;5.40;99.90;;;;;;5099165;28;20319;-59
2023/04/14 04:33:39;;;;;;;5.83;4.43;;;5.30;99.90;;;;;;5098416;28;20208;-58
2023/04/14 04:36:06;;;;;;;8.60;5.43;;;5.30;99.90;;;;;;5098608;28;20218;-57
2023/04/14 04:38:33;;;;;;;5.50;3.80;;;5.30;99.90;;;;;;5098630;28;20214;-59
2023/04/14 04:41:00;;;;;;;4.50;3.57;;;5.30;99.90;;;;;;5097718;28;20722;-57
2023/04/14 04:43:27;;;;;;;8.17;4.97;;;5.30;99.90;;;;;;5098339;28;20686;-59
2023/04/14 04:46:11;;;;;;;7.47;3.87;;;5.30;99.90;;;;;;5097985;28;20208;-59
2023/04/14 04:48:39;;;;;;;7.30;4.30;;;5.30;99.90;;;;;;5098400;28;20204;-59
2023/04/14 04:51:06;;;;;;;4.93;3.77;;;5.30;99.90;;;;;;5098088;28;20338;-59
2023/04/14 04:53:32;;;;;;;4.93;3.10;;;5.30;99.90;;;;;;5098587;28;20200;-59
2023/04/14 04:56:00;;;;;;;49.23;28.93;;;5.30;99.90;;;;;;5098398;28;20212;-59
2023/04/14 04:58:26;;;;;;;11.40;7.73;;;5.40;99.90;;;;;;5099272;28;20206;-59
2023/04/14 05:00:53;;;;;;;4.83;3.87;;;5.40;99.90;;;;;;5099131;28;20228;-59
2023/04/14 05:03:20;;;;;;;16.07;8.93;;;5.50;99.90;;;;;;5097997;28;20702;-58
2023/04/14 05:05:48;;;;;;;7.13;5.23;;;5.50;99.90;;;;;;5098366;28;20208;-59
2023/04/14 05:08:15;;;;;;;14.20;9.63;;;5.60;99.90;;;;;;5097833;28;20200;-59
2023/04/14 05:10:42;;;;;;;11.90;8.67;;;5.60;99.90;;;;;;5098194;28;20224;-59
2023/04/14 05:13:09;;;;;;;15.90;12.20;;;5.70;99.90;;;;;;5097797;28;20204;-59
2023/04/14 05:15:36;;;;;;;10.73;7.67;;;5.70;99.90;;;;;;5097732;28;20206;-59
2023/04/14 05:18:02;;;;;;;10.97;7.03;;;5.70;99.90;;;;;;5097640;28;20418;-60
2023/04/14 05:20:29;;;;;;;5.13;2.77;;;5.90;99.90;;;;;;5097770;28;20251;-59
2023/04/14 05:22:57;;;;;;;12.03;5.70;;;5.90;99.90;;;;;;5097507;28;20204;-58
2023/04/14 05:25:24;;;;;;;8.60;4.03;;;5.90;99.90;;;;;;5097941;28;20204;-58
2023/04/14 05:27:51;;;;;;;10.67;4.03;;;6.00;99.90;;;;;;5097577;28;20216;-57
2023/04/14 05:30:17;;;;;;;16.67;7.13;;;6.00;99.90;;;;;;5097662;28;20234;-58
2023/04/14 05:32:44;;;;;;;5.10;3.10;;;6.00;99.90;;;;;;5096114;28;20231;-58
2023/04/14 05:35:11;;;;;;;11.87;6.03;;;6.10;99.90;;;;;;5097860;28;20208;-58
2023/04/14 05:37:37;;;;;;;5.90;3.13;;;6.20;99.90;;;;;;5097459;28;20212;-59
2023/04/14 05:40:07;;;;;;;5.33;3.00;;;6.30;99.90;;;;;;5096529;28;20228;-58
2023/04/14 05:42:34;;;;;;;7.07;3.50;;;6.50;99.90;;;;;;5096593;28;20212;-59
2023/04/14 05:45:01;;;;;;;9.83;3.70;;;7.10;99.90;;;;;;5096785;28;20555;-59
2023/04/14 05:47:28;;;;;;;6.87;3.47;;;8.20;99.90;;;;;;5097330;28;20208;-57
2023/04/14 05:49:54;;;;;;;5.27;3.50;;;9.40;99.90;;;;;;5096442;28;20220;-61
2023/04/14 05:52:21;;;;;;;4.47;2.97;;;10.50;99.90;;;;;;5096817;28;20691;-58
2023/04/14 05:54:48;;;;;;;3.80;2.90;;;11.50;99.90;;;;;;5095433;28;20210;-57
2023/04/14 05:57:16;;;;;;;4.40;3.00;;;12.50;99.90;;;;;;5094761;28;20239;-57
2023/04/14 05:59:43;;;;;;;3.57;2.80;;;13.40;99.90;;;;;;5094671;28;20722;-57
2023/04/14 06:02:10;;;;;;;4.53;2.87;;;14.40;99.90;;;;;;5094895;28;20204;-56
2023/04/14 06:04:37;;;;;;;5.33;3.10;;;15.20;99.90;;;;;;5094742;28;20204;-58
2023/04/14 06:07:03;;;;;;;5.87;3.43;;;16.00;99.90;;;;;;5094153;28;20706;-57
2023/04/14 06:09:30;;;;;;;9.07;3.40;;;16.40;99.90;;;;;;5094145;28;20231;-57
2023/04/14 06:11:57;;;;;;;11.77;3.58;;;16.90;99.90;;;;;;5094316;28;20211;-58
2023/04/14 06:14:25;;;;;;;6.10;2.47;;;17.40;99.90;;;;;;5094589;28;20208;-58
2023/04/14 06:16:52;;;;;;;14.07;3.17;;;17.90;99.90;;;;;;5093841;28;20218;-58
2023/04/14 06:19:18;;;;;;;4.57;2.47;;;18.70;99.90;;;;;;5094437;28;20652;-58
2023/04/14 06:21:46;;;;;;;8.05;3.80;;;19.50;99.10;;;;;;5093756;28;20228;-58
2023/04/14 06:24:12;;;;;;;6.30;2.72;;;20.30;97.70;;;;;;5093553;28;20231;-57
2023/04/14 06:26:39;;;;;;;6.40;2.42;;;21.20;95.00;;;;;;5093680;28;20585;-60
2023/04/14 06:29:06;;;;;;;4.80;2.50;;;22.00;92.70;;;;;;5093760;28;20208;-58
2023/04/14 06:31:35;;;;;;;4.82;2.55;;;22.70;90.30;;;;;;5093314;28;20220;-58
2023/04/14 06:34:02;;;;;;;7.20;2.20;;;23.30;85.30;;;;;;5093413;28;20204;-58
2023/04/14 06:36:28;;;;;;;6.38;2.25;;;23.80;83.60;;;;;;5093300;28;20204;-57
2023/04/14 06:38:56;;;;;;;9.32;2.45;;;24.00;79.50;;;;;;5093280;28;20219;-58
2023/04/14 06:41:23;;;;;;;3.53;1.85;;;24.20;77.40;;;;;;5093109;28;20720;-59
2023/04/14 06:43:50;;;;;;;5.30;2.05;;;24.80;75.20;;;;;;5092939;28;20208;-59
2023/04/14 06:46:17;;;;;;;5.25;2.40;;;25.60;73.00;;;;;;5092872;28;20200;-58
2023/04/14 06:48:45;;;;;;;4.53;2.08;;;25.90;68.30;;;;;;5092791;28;20674;-58
2023/04/14 06:51:12;;;;;;;6.30;2.53;;;26.00;69.10;;;;;;5092651;28;20231;-58
2023/04/14 06:53:39;;;;;;;6.68;2.60;;;26.40;66.00;;;;;;5092966;28;20235;-59
2023/04/14 06:56:07;;;;;;;6.22;2.10;;;26.80;63.40;;;;;;5093043;28;20208;-59
2023/04/14 06:58:34;;;;;;;6.07;2.30;;;26.70;64.30;;;;;;5093127;28;20207;-58
2023/04/14 07:01:02;;;;;;;8.43;3.08;;;27.40;63.30;;;;;;5093153;28;20224;-59
2023/04/14 07:03:30;;;;;;;5.30;2.10;;;27.60;58.80;;;;;;5092936;28;20206;-59
2023/04/14 07:06:04;;;;;;;4.53;1.98;;;27.10;61.00;;;;;;5093434;28;20236;-59
2023/04/14 07:08:31;;;;;;;6.32;2.47;;;27.50;59.50;;;;;;5093110;28;20208;-59
2023/04/14 07:11:00;;;;;;;3.78;1.92;;;27.60;58.80;;;;;;5092953;28;20217;-59
2023/04/14 07:13:27;;;;;;;5.05;2.28;;;27.70;58.30;;;;;;5093159;28;20236;-59
2023/04/14 07:15:54;;;;;;;5.95;2.10;;;28.10;57.90;;;;;;5093039;28;20208;-58
2023/04/14 07:18:20;;;;;;;6.50;2.42;;;28.40;57.10;;;;;;5093096;28;20192;-61
2023/04/14 07:20:51;;;;;;;6.78;2.30;;;28.50;55.80;;;;;;5092921;28;20325;-61
2023/04/14 07:23:20;;;;;;;3.35;1.80;;;28.10;55.50;;;;;;5092927;28;20204;-59
2023/04/14 07:25:51;;;;;;;5.97;2.30;;;26.90;56.00;;;;;;5092899;28;20204;-59
2023/04/14 07:28:17;;;;;;;4.57;2.15;;;25.00;59.00;;;;;;5092300;28;20210;-59
2023/04/14 07:30:44;;;;;;;3.53;2.08;;;25.20;59.60;;;;;;5097208;22;20231;-63
2023/04/14 07:33:12;;;;;;;4.47;2.40;;;26.30;58.00;;;;;;5063752;28;20687;-63
2023/04/14 07:35:39;;;;;;;3.38;2.10;;;27.30;57.10;;;;;;5072207;28;20204;-63
2023/04/14 07:38:06;;;;;;;4.68;1.90;;;27.50;56.10;;;;;;5071774;28;20208;-63
2023/04/14 07:40:35;;;;;;;5.10;1.77;;;26.90;56.90;;;;;;5071921;28;20260;-63
2023/04/14 07:43:01;;;;;;;4.40;1.92;;;26.00;56.90;;;;;;5071967;28;20227;-63
2023/04/14 07:45:28;;;;;;;3.05;1.75;;;24.60;59.90;;;;;;5071753;28;20197;-62
2023/04/14 07:47:55;;;;;;;9.18;4.38;;;23.80;60.70;;;;;;5071672;28;20209;-63
2023/04/14 07:50:22;;;;;;;7.28;2.72;;;23.60;61.20;;;;;;5071774;28;20633;-63
2023/04/14 07:52:49;;;;;;;6.07;2.72;;;23.80;61.40;;;;;;5071782;28;20205;-62
2023/04/14 07:55:15;;;;;;;5.40;2.20;;;23.50;61.50;;;;;;5070886;28;20689;-63
2023/04/14 07:57:44;;;;;;;5.85;2.10;;;23.10;62.60;;;;;;5071882;28;20205;-63
2023/04/14 08:00:12;;;;;;;4.57;2.10;;;22.60;64.00;;;;;;5071603;28;20225;-63
2023/04/14 08:02:38;;;;;;;3.53;2.08;;;21.60;65.60;;;;;;5071448;28;20208;-63
2023/04/14 08:05:06;;;;;;;4.03;2.05;;;20.80;67.30;;;;;;5071563;28;20208;-64
2023/04/14 08:07:33;;;;;;;5.35;2.15;;;20.40;68.80;;;;;;5071597;28;20209;-64
2023/04/14 08:09:59;;;;;;;5.82;2.15;;;20.10;69.90;;;;;;5071506;28;20228;-64
2023/04/14 08:12:26;;;;;;;6.60;2.13;;;20.10;70.00;;;;;;5071624;28;20258;-63
2023/04/14 08:14:55;;;;;;;5.95;2.50;;;20.10;70.40;;;;;;5071528;28;20680;-63
2023/04/14 08:17:22;;;;;;;7.00;2.55;;;20.10;70.40;;;;;;5071371;28;20208;-64
2023/04/14 08:19:49;;;;;;;6.93;2.58;;;19.70;71.60;;;;;;5071701;28;20209;-61
2023/04/14 08:22:16;;;;;;;6.75;2.50;;;18.60;73.40;;;;;;5071634;28;20224;-63
2023/04/14 08:24:42;;;;;;;5.00;2.08;;;17.40;75.90;;;;;;5071550;28;20208;-63
2023/04/14 08:27:09;;;;;;;7.93;2.72;;;16.50;79.60;;;;;;5075145;28;20209;-65
2023/04/14 08:29:42;;;;;;;5.43;2.50;;;15.70;83.00;;;;;;5073587;28;20216;-65
2023/04/14 08:32:11;;;;;;;9.27;2.67;;;15.10;86.20;;;;;;5075482;28;20213;-65
2023/04/14 08:34:38;;;;;;;9.10;2.57;;;14.70;86.90;;;;;;5071515;28;20212;-66
2023/04/14 08:37:05;;;;;;;5.10;1.90;;;14.50;89.20;;;;;;5072446;28;20641;-65
2023/04/14 08:39:31;;;;;;;6.73;2.03;;;14.10;89.30;;;;;;5074190;28;20240;-65
2023/04/14 08:41:58;;;;;;;4.67;2.23;;;13.80;90.30;;;;;;5071618;28;20241;-65
2023/04/14 08:44:25;;;;;;;4.63;2.17;;;13.70;90.80;;;;;;5071307;28;20223;-66
2023/04/14 08:46:52;;;;;;;5.83;2.20;;;13.40;91.40;;;;;;5071255;28;20205;-66
2023/04/14 08:49:32;;;;;;;4.87;1.90;;;13.30;92.30;;;;;;5071450;28;20209;-67
2023/04/14 08:52:01;;;;;;;8.30;2.27;;;13.40;92.30;;;;;;5070966;28;20217;-66
2023/04/14 08:54:28;;;;;;;4.90;2.10;;;13.20;92.20;;;;;;5071289;28;20395;-66
2023/04/14 08:56:57;;;;;;;3.77;1.80;;;13.20;92.70;;;;;;5071240;28;20205;-66
2023/04/14 08:59:25;;;;;;;5.27;2.27;;;13.10;93.40;;;;;;5071111;28;20248;-66
2023/04/14 09:01:53;;;;;;;6.83;2.50;;;13.10;93.50;;;;;;5070737;28;20278;-64
2023/04/14 09:04:22;;;;;;;10.00;2.63;;;13.20;94.00;;;;;;5071156;28;20209;-66
2023/04/14 09:06:49;;;;;;;6.87;2.20;;;13.30;93.90;;;;;;5072199;28;20283;-65
2023/04/14 09:09:16;;;;;;;7.43;2.20;;;13.30;93.60;;;;;;5075499;28;20205;-66
2023/04/14 09:11:43;;;;;;;5.57;2.33;;;13.10;94.40;;;;;;5075896;28;20274;-66
2023/04/14 09:14:12;;;;;;;5.67;2.20;;;13.10;95.30;;;;;;5075228;28;20217;-66
2023/04/14 09:16:39;;;;;;;9.77;2.70;;;13.20;94.90;;;;;;5074789;28;20204;-65
2023/04/14 09:19:07;;;;;;;6.23;2.10;;;13.20;94.90;;;;;;5074928;28;20686;-65
2023/04/14 09:21:36;;;;;;;6.60;2.30;;;13.40;95.00;;;;;;5074331;28;20688;-65
2023/04/14 09:24:04;;;;;;;6.17;2.27;;;13.50;94.50;;;;;;5074654;28;20308;-66
2023/04/14 09:26:30;;;;;;;5.47;2.20;;;13.70;95.10;;;;;;5074493;28;20205;-66
2023/04/14 09:28:57;;;;;;;7.17;2.33;;;13.90;94.90;;;;;;5074788;28;20205;-65
2023/04/14 09:31:24;;;;;;;3.87;1.87;;;14.10;93.70;;;;;;5074079;28;20236;-66
2023/04/14 09:33:51;;;;;;;6.13;2.30;;;14.10;93.90;;;;;;5074327;28;20208;-67
2023/04/14 09:36:19;;;;;;;5.07;2.10;;;14.10;94.60;;;;;;5074293;28;20589;-66
2023/04/14 09:38:49;;;;;;;8.47;2.00;;;14.40;94.80;;;;;;5073797;28;20584;-67
2023/04/14 09:41:17;;;;;;;8.97;2.23;;;14.50;93.90;;;;;;5074034;28;20320;-68
2023/04/14 09:43:44;;;;;;;8.80;2.13;;;14.50;93.60;;;;;;5073898;28;20231;-68
2023/04/14 09:46:11;;;;;;;6.83;2.03;;;14.70;93.90;;;;;;5073971;28;20212;-66
2023/04/14 09:48:50;;;;;;;6.63;2.30;;;14.80;92.60;;;;;;5074025;28;20209;-66
2023/04/14 09:51:17;;;;;;;6.20;2.50;;;15.10;92.60;;;;;;5074057;28;20307;-68
2023/04/14 09:53:44;;;;;;;5.40;2.00;;;15.40;93.00;;;;;;5074097;28;20676;-67
2023/04/14 09:56:13;;;;;;;5.17;1.87;;;15.60;92.00;;;;;;5074003;28;20212;-67
2023/04/14 09:58:41;;;;;;;4.75;1.90;;;15.40;91.50;;;;;;5073330;28;20224;-67
2023/04/14 10:01:12;;;;;;;8.27;2.07;;;15.20;91.60;;;;;;5073789;28;20236;-67
2023/04/14 10:03:40;;;;;;;9.17;2.30;;;15.30;92.30;;;;;;5073959;28;20243;-67
2023/04/14 10:06:08;;;;;;;5.47;1.83;;;15.50;91.70;;;;;;5073565;28;20201;-67
2023/04/14 10:08:37;;;;;;;6.00;2.30;;;15.60;90.70;;;;;;5073230;28;20215;-67
2023/04/14 10:11:19;;;;;;;9.00;4.07;;;15.40;91.20;;;;;;5073300;28;20221;-67
2023/04/14 10:13:47;;;;;;;4.47;1.83;;;15.20;91.10;;;;;;5073973;28;20278;-67
2023/04/14 10:16:14;;;;;;;9.00;2.90;;;15.10;91.80;;;;;;5073569;28;20258;-66
2023/04/14 10:18:42;;;;;;;5.23;1.93;;;15.20;92.00;;;;;;5072758;28;20216;-66
2023/04/14 10:21:10;;;;;;;7.10;2.17;;;15.30;91.40;;;;;;5073402;28;20324;-67
2023/04/14 10:23:38;;;;;;;7.27;1.87;;;15.20;90.70;;;;;;5073133;28;20219;-66
2023/04/14 10:26:06;;;;;;;7.60;2.43;;;14.90;90.30;;;;;;5073620;28;20209;-66
2023/04/14 10:28:35;;;;;;;8.23;2.10;;;14.80;90.20;;;;;;5073592;28;20205;-67
2023/04/14 10:31:05;;;;;;;7.17;1.80;;;14.80;90.30;;;;;;5073077;28;20569;-66
2023/04/14 10:33:32;;;;;;;7.60;1.77;;;14.70;90.70;;;;;;5073031;28;20244;-68
2023/04/14 10:36:00;;;;;;;6.10;1.70;;;14.60;90.40;;;;;;5073101;28;20242;-67
2023/04/14 10:38:57;;;;;;;7.90;2.93;;;14.50;90.30;;;;;;5073372;28;20205;-68
2023/04/14 10:41:24;;;;;;;5.50;1.80;;;14.60;91.30;;;;;;5059972;28;20236;-68
2023/04/14 10:43:52;;;;;;;8.47;2.00;;;14.60;90.20;;;;;;5073093;28;20258;-66
2023/04/14 10:46:20;;;;;;;8.53;4.00;;;14.40;90.20;;;;;;5073089;28;20243;-67
2023/04/14 10:48:48;;;;;;;7.33;2.27;;;14.40;90.70;;;;;;5073131;28;20232;-68
2023/04/14 10:51:18;;;;;;;8.10;2.03;;;14.50;90.70;;;;;;5075419;28;20243;-67
2023/04/14 10:53:48;;;;;;;8.40;2.10;;;14.60;90.80;;;;;;5074957;28;20748;-68
2023/04/14 10:56:16;;;;;;;7.43;1.93;;;13.70;90.20;;;;;;5074441;28;20238;-67
2023/04/14 10:58:55;;;;;;;7.27;2.20;;;14.70;90.80;;;;;;5073979;28;20200;-68
2023/04/14 11:01:28;;;;;;;5.20;2.17;;;14.80;90.50;;;;;;5075363;28;20237;-69
2023/04/14 11:03:55;;;;;;;6.93;2.10;;;15.00;90.80;;;;;;5073019;28;20255;-67
2023/04/14 11:06:51;;;;;;;6.63;2.03;;;15.20;90.10;;;;;;5073827;28;20258;-68
2023/04/14 11:09:25;;;;;;;5.20;1.70;;;15.30;88.60;;;;;;5074741;28;20661;-67
2023/04/14 11:11:52;;;;;;;5.67;2.10;;;15.10;88.80;;;;;;5073239;28;20231;-67
2023/04/14 11:14:27;;;;;;;4.93;2.30;;;14.80;88.80;;;;;;5072867;28;20235;-67
2023/04/14 11:17:03;;;;;;;5.97;2.30;;;14.80;90.90;;;;;;5072428;28;20208;-69
2023/04/14 11:19:30;;;;;;;7.47;2.20;;;15.00;88.10;;;;;;5072468;28;20247;-68
2023/04/14 11:21:57;;;;;;;6.22;1.90;;;15.20;87.70;;;;;;5072012;28;20632;-68
2023/04/14 11:24:25;;;;;;;5.63;2.07;;;15.50;87.20;;;;;;5072437;28;20231;-66
2023/04/14 11:26:53;;;;;;;7.60;2.10;;;15.70;87.50;;;;;;5072181;28;20209;-67
2023/04/14 11:29:20;;;;;;;5.22;2.03;;;15.80;87.00;;;;;;5071694;28;20211;-67
2023/04/14 11:32:02;;;;;;;3.60;1.70;;;15.70;89.00;;;;;;5072077;28;20235;-68
2023/04/14 11:34:28;;;;;;;8.07;2.60;;;15.80;87.60;;;;;;5072002;28;20217;-67
2023/04/14 11:36:55;;;;;;;4.68;1.80;;;15.80;86.30;;;;;;5071866;28;20204;-64
2023/04/14 11:39:22;;;;;;;5.43;1.60;;;15.90;86.00;;;;;;5062634;28;20209;-67
2023/04/14 11:41:50;;;;;;;5.03;1.97;;;16.00;84.20;;;;;;5051108;28;20221;-65
2023/04/14 11:44:18;;;;;;;7.35;2.58;;;16.00;84.70;;;;;;5051201;28;20213;-65
2023/04/14 11:46:45;;;;;;;5.00;1.93;;;16.20;85.60;;;;;;5050694;28;20209;-64
2023/04/14 11:49:13;;;;;;;6.63;1.83;;;16.30;83.60;;;;;;5050834;28;20202;-65
2023/04/14 11:51:39;;;;;;;4.20;1.80;;;16.30;84.50;;;;;;5051218;28;20224;-65
2023/04/14 11:54:06;;;;;;;8.32;1.88;;;16.30;84.40;;;;;;5050784;28;20201;-62
2023/04/14 11:56:33;;;;;;;8.03;2.10;;;16.30;84.60;;;;;;5051072;28;20209;-65
2023/04/14 11:59:01;;;;;;;9.27;2.17;;;16.30;85.10;;;;;;5051517;28;20210;-65
2023/04/14 12:01:29;;;;;;;6.57;2.00;;;16.30;84.70;;;;;;5051533;28;20316;-65
2023/04/14 12:03:57;;;;;;;6.82;1.95;;;16.60;83.80;;;;;;5051695;28;20213;-64
2023/04/14 12:06:26;;;;;;;19.25;12.88;;;16.90;83.30;;;;;;5051677;28;20206;-64
2023/04/14 12:08:54;;;;;;;10.45;4.82;;;17.20;82.20;;;;;;5051243;28;20316;-65
2023/04/14 12:11:21;;;;;;;5.22;2.00;;;17.50;81.30;;;;;;5051361;28;20226;-64
2023/04/14 12:13:49;;;;;;;6.70;1.80;;;17.50;81.30;;;;;;5051475;28;20205;-64
2023/04/14 12:16:17;;;;;;;3.65;1.55;;;17.40;80.70;;;;;;5051251;28;20260;-64
2023/04/14 12:18:44;;;;;;;4.47;1.60;;;17.30;77.40;;;;;;5051483;28;20202;-64
2023/04/14 12:21:17;;;;;;;6.75;2.10;;;17.30;78.90;;;;;;5051421;28;20612;-65
2023/04/14 12:23:48;;;;;;;5.40;1.70;;;17.20;80.50;;;;;;5051675;28;20232;-64
2023/04/14 12:26:15;;;;;;;4.15;1.65;;;17.10;82.70;;;;;;5051414;28;20237;-64
2023/04/14 12:28:41;;;;;;;7.65;1.75;;;17.00;80.20;;;;;;5050981;28;20255;-66
2023/04/14 12:31:09;;;;;;;8.23;1.73;;;16.80;78.70;;;;;;5051037;28;20586;-65
2023/04/14 12:33:35;;;;;;;7.57;1.92;;;16.40;78.30;;;;;;5051406;28;20201;-65
2023/04/14 12:36:03;;;;;;;7.23;2.20;;;16.00;78.60;;;;;;5051359;28;20210;-64
2023/04/14 12:38:30;;;;;;;3.70;1.73;;;15.90;80.10;;;;;;5051258;28;20282;-64
2023/04/14 12:40:59;;;;;;;6.05;1.73;;;15.90;79.10;;;;;;5051909;28;20231;-65
2023/04/14 12:43:31;;;;;;;8.52;4.80;;;16.00;75.00;;;;;;5055042;28;20275;-66
2023/04/14 12:45:58;;;;;;;5.38;1.42;;;16.30;75.40;;;;;;5055247;28;20221;-65
2023/04/14 12:48:40;;;;;;;14.82;6.25;;;16.60;70.00;;;;;;5054976;28;20214;-65
2023/04/14 12:51:08;;;;;;;4.95;1.25;;;16.90;69.70;;;;;;5054808;28;20257;-64
2023/04/14 12:53:35;;;;;;;6.53;1.60;;;17.20;71.30;;;;;;5054771;28;20206;-64
2023/04/14 12:56:07;;;;;;;2.85;1.45;;;17.40;72.50;;;;;;5055003;28;20574;-65
2023/04/14 12:58:35;;;;;;;3.75;1.73;;;17.30;72.90;;;;;;5054835;28;20216;-67